sensor_id;sensor_type;location;lat;lon;timestamp;temperature;humidity
70368;DHT22;57789;53.868;10.728;2023-04-03T00:02:07;0.80;99.90
70368;DHT22;57789;53.868;10.728;2023-04-03T00:04:33;0.70;99.90
70368;DHT22;57789;53.868;10.728;2023-04-03T00:06:59;0.80;99.90
70368;DHT22;57789;53.868;10.728;2023-04-03T00:09:27;0.80;99.90
70368;DHT22;57789;53.868;10.728;2023-04-03T00:11:53;0.90;99.90
70368;DHT22;57789;53.868;10.728;2023-04-03T00:14:19;0.80;99.90
70368;DHT22;57789;53.868;10.728;2023-04-03T00:16:45;0.80;99.90
70368;DHT22;57789;53.868;10.728;2023-04-03T00:19:11;0.90;99.90
70368;DHT22;57789;53.868;10.728;2023-04-03T00:21:37;0.80;99.90
70368;DHT22;57789;53.868;10.728;2023-04-03T00:24:03;0.80;99.90
70368;DHT22;57789;53.868;10.728;2023-04-03T00:26:29;0.80;99.90
70368;DHT22;57789;53.868;10.728;2023-04-03T00:28:55;0.80;99.90
70368;DHT22;57789;53.868;10.728;2023-04-03T00:31:21;0.90;99.90
70368;DHT22;57789;53.868;10.728;2023-04-03T00:33:47;0.90;99.90
70368;DHT22;57789;53.868;10.728;2023-04-03T00:36:13;0.90;99.90
70368;DHT22;57789;53.868;10.728;2023-04-03T00:38:39;0.90;99.90
70368;DHT22;57789;53.868;10.728;2023-04-03T00:41:05;0.90;99.90
70368;DHT22;57789;53.868;10.728;2023-04-03T00:43:31;0.90;99.90
70368;DHT22;57789;53.868;10.728;2023-04-03T00:45:58;0.80;99.90
70368;DHT22;57789;53.868;10.728;2023-04-03T00:48:29;0.80;99.90
70368;DHT22;57789;53.868;10.728;2023-04-03T00:50:56;0.80;99.90
70368;DHT22;57789;53.868;10.728;2023-04-03T00:53:31;0.80;99.90
70368;DHT22;57789;53.868;10.728;2023-04-03T00:55:58;0.70;99.90
70368;DHT22;57789;53.868;10.728;2023-04-03T00:58:33;0.70;99.90
70368;DHT22;57789;53.868;10.728;2023-04-03T01:00:59;0.70;99.90
70368;DHT22;57789;53.868;10.728;2023-04-03T01:03:28;0.70;99.90
70368;DHT22;57789;53.868;10.728;2023-04-03T01:05:56;0.60;99.90
70368;DHT22;57789;53.868;10.728;2023-04-03T01:08:22;0.50;99.90
70368;DHT22;57789;53.868;10.728;2023-04-03T01:10:49;0.60;99.90
70368;DHT22;57789;53.868;10.728;2023-04-03T01:13:33;0.60;99.90
70368;DHT22;57789;53.868;10.728;2023-04-03T01:16:03;0.70;99.90
70368;DHT22;57789;53.868;10.728;2023-04-03T01:18:31;0.60;99.90
70368;DHT22;57789;53.868;10.728;2023-04-03T01:26:32;0.60;99.90
70368;DHT22;57789;53.868;10.728;2023-04-03T01:28:59;0.60;99.90
70368;DHT22;57789;53.868;10.728;2023-04-03T01:31:28;0.60;99.90
70368;DHT22;57789;53.868;10.728;2023-04-03T01:33:55;0.60;99.90
70368;DHT22;57789;53.868;10.728;2023-04-03T01:36:24;0.60;99.90
70368;DHT22;57789;53.868;10.728;2023-04-03T01:38:52;0.50;99.90
70368;DHT22;57789;53.868;10.728;2023-04-03T01:41:18;0.50;99.90
70368;DHT22;57789;53.868;10.728;2023-04-03T01:43:44;0.50;99.90
70368;DHT22;57789;53.868;10.728;2023-04-03T01:46:10;0.50;99.90
70368;DHT22;57789;53.868;10.728;2023-04-03T01:48:35;0.20;99.90
70368;DHT22;57789;53.868;10.728;2023-04-03T01:51:01;0.20;99.90
70368;DHT22;57789;53.868;10.728;2023-04-03T01:53:27;0.20;99.90
70368;DHT22;57789;53.868;10.728;2023-04-03T01:55:53;0.30;99.90
70368;DHT22;57789;53.868;10.728;2023-04-03T01:58:18;0.40;99.90
70368;DHT22;57789;53.868;10.728;2023-04-03T02:00:44;0.40;99.90
70368;DHT22;57789;53.868;10.728;2023-04-03T02:03:11;0.40;99.90
70368;DHT22;57789;53.868;10.728;2023-04-03T02:05:37;0.50;99.90
70368;DHT22;57789;53.868;10.728;2023-04-03T02:08:03;0.50;99.90
70368;DHT22;57789;53.868;10.728;2023-04-03T02:10:28;0.40;99.90
70368;DHT22;57789;53.868;10.728;2023-04-03T02:12:54;0.40;99.90
70368;DHT22;57789;53.868;10.728;2023-04-03T02:15:20;0.30;99.90
70368;DHT22;57789;53.868;10.728;2023-04-03T02:17:46;0.40;99.90
70368;DHT22;57789;53.868;10.728;2023-04-03T02:20:11;0.30;99.90
70368;DHT22;57789;53.868;10.728;2023-04-03T02:22:37;0.40;99.90
70368;DHT22;57789;53.868;10.728;2023-04-03T02:25:03;0.40;99.90
70368;DHT22;57789;53.868;10.728;2023-04-03T02:27:29;0.40;99.90
70368;DHT22;57789;53.868;10.728;2023-04-03T02:29:55;0.40;99.90
70368;DHT22;57789;53.868;10.728;2023-04-03T02:32:21;0.40;99.90
70368;DHT22;57789;53.868;10.728;2023-04-03T02:34:46;0.40;99.90
70368;DHT22;57789;53.868;10.728;2023-04-03T02:37:12;0.30;99.90
70368;DHT22;57789;53.868;10.728;2023-04-03T02:39:38;0.20;99.90
70368;DHT22;57789;53.868;10.728;2023-04-03T02:42:03;0.20;99.90
70368;DHT22;57789;53.868;10.728;2023-04-03T02:44:29;0.20;99.90
70368;DHT22;57789;53.868;10.728;2023-04-03T02:46:55;0.10;99.90
70368;DHT22;57789;53.868;10.728;2023-04-03T02:49:21;0.00;99.90
70368;DHT22;57789;53.868;10.728;2023-04-03T02:51:46;0.10;99.90
70368;DHT22;57789;53.868;10.728;2023-04-03T02:54:13;0.10;99.90
70368;DHT22;57789;53.868;10.728;2023-04-03T02:56:39;0.00;99.90
70368;DHT22;57789;53.868;10.728;2023-04-03T02:59:05;-0.20;99.90
70368;DHT22;57789;53.868;10.728;2023-04-03T03:01:30;-0.20;99.90
70368;DHT22;57789;53.868;10.728;2023-04-03T03:03:58;-0.10;99.90
70368;DHT22;57789;53.868;10.728;2023-04-03T03:06:24;-0.10;99.90
70368;DHT22;57789;53.868;10.728;2023-04-03T03:08:50;-0.20;99.90
70368;DHT22;57789;53.868;10.728;2023-04-03T03:11:16;-0.20;99.90
70368;DHT22;57789;53.868;10.728;2023-04-03T03:13:41;-0.10;99.90
70368;DHT22;57789;53.868;10.728;2023-04-03T03:16:08;-0.20;99.90
70368;DHT22;57789;53.868;10.728;2023-04-03T03:18:34;-0.20;99.90
70368;DHT22;57789;53.868;10.728;2023-04-03T03:21:01;-0.30;99.90
70368;DHT22;57789;53.868;10.728;2023-04-03T03:23:29;-0.40;99.90
70368;DHT22;57789;53.868;10.728;2023-04-03T03:26:01;-0.30;99.90
70368;DHT22;57789;53.868;10.728;2023-04-03T03:28:27;-0.30;99.90
70368;DHT22;57789;53.868;10.728;2023-04-03T03:30:53;-0.40;99.90
70368;DHT22;57789;53.868;10.728;2023-04-03T03:33:18;-0.40;99.90
70368;DHT22;57789;53.868;10.728;2023-04-03T03:35:45;-0.40;99.90
70368;DHT22;57789;53.868;10.728;2023-04-03T03:38:10;-0.30;99.90
70368;DHT22;57789;53.868;10.728;2023-04-03T03:40:36;-0.30;99.90
70368;DHT22;57789;53.868;10.728;2023-04-03T03:43:02;-0.40;99.90
70368;DHT22;57789;53.868;10.728;2023-04-03T03:45:28;-0.40;99.90
70368;DHT22;57789;53.868;10.728;2023-04-03T03:47:55;-0.30;99.90
70368;DHT22;57789;53.868;10.728;2023-04-03T03:50:21;-0.40;99.90
70368;DHT22;57789;53.868;10.728;2023-04-03T03:52:46;-0.40;99.90
70368;DHT22;57789;53.868;10.728;2023-04-03T03:55:12;-0.40;99.90
70368;DHT22;57789;53.868;10.728;2023-04-03T03:57:38;-0.50;99.90
70368;DHT22;57789;53.868;10.728;2023-04-03T04:00:06;-0.60;99.90
70368;DHT22;57789;53.868;10.728;2023-04-03T04:02:32;-0.60;99.90
70368;DHT22;57789;53.868;10.728;2023-04-03T04:04:58;-0.60;99.90
70368;DHT22;57789;53.868;10.728;2023-04-03T04:07:24;-0.70;99.90
70368;DHT22;57789;53.868;10.728;2023-04-03T04:09:50;-0.70;99.90
70368;DHT22;57789;53.868;10.728;2023-04-03T04:12:15;-0.60;99.90
70368;DHT22;57789;53.868;10.728;2023-04-03T04:14:41;-0.70;99.90
70368;DHT22;57789;53.868;10.728;2023-04-03T04:17:07;-0.60;99.90
70368;DHT22;57789;53.868;10.728;2023-04-03T04:19:33;-0.50;99.90
70368;DHT22;57789;53.868;10.728;2023-04-03T04:21:58;-0.60;99.90
70368;DHT22;57789;53.868;10.728;2023-04-03T04:24:24;-0.60;99.90
70368;DHT22;57789;53.868;10.728;2023-04-03T04:26:50;-0.60;99.90
70368;DHT22;57789;53.868;10.728;2023-04-03T04:29:15;-0.50;99.90
70368;DHT22;57789;53.868;10.728;2023-04-03T04:31:41;-0.50;99.90
70368;DHT22;57789;53.868;10.728;2023-04-03T04:34:07;-0.60;99.90
70368;DHT22;57789;53.868;10.728;2023-04-03T04:36:33;-0.60;99.90
70368;DHT22;57789;53.868;10.728;2023-04-03T04:38:59;-0.50;99.90
70368;DHT22;57789;53.868;10.728;2023-04-03T04:41:25;-0.60;99.90
70368;DHT22;57789;53.868;10.728;2023-04-03T04:43:52;-0.70;99.90
70368;DHT22;57789;53.868;10.728;2023-04-03T04:46:18;-0.70;99.90
70368;DHT22;57789;53.868;10.728;2023-04-03T04:48:44;-0.70;99.90
70368;DHT22;57789;53.868;10.728;2023-04-03T04:51:10;-0.70;99.90
70368;DHT22;57789;53.868;10.728;2023-04-03T04:53:36;-0.80;99.90
70368;DHT22;57789;53.868;10.728;2023-04-03T04:56:03;-0.70;99.90
70368;DHT22;57789;53.868;10.728;2023-04-03T04:58:29;-0.80;99.90
70368;DHT22;57789;53.868;10.728;2023-04-03T05:01:02;-0.70;99.90
70368;DHT22;57789;53.868;10.728;2023-04-03T05:03:28;-0.70;99.90
70368;DHT22;57789;53.868;10.728;2023-04-03T05:05:53;-0.60;99.90
70368;DHT22;57789;53.868;10.728;2023-04-03T05:08:20;-0.60;99.90
70368;DHT22;57789;53.868;10.728;2023-04-03T05:10:46;-0.60;99.90
70368;DHT22;57789;53.868;10.728;2023-04-03T05:13:12;-0.70;99.90
70368;DHT22;57789;53.868;10.728;2023-04-03T05:15:37;-0.60;99.90
70368;DHT22;57789;53.868;10.728;2023-04-03T05:18:07;-0.60;99.90
70368;DHT22;57789;53.868;10.728;2023-04-03T05:20:33;-0.50;99.90
70368;DHT22;57789;53.868;10.728;2023-04-03T05:22:59;-0.50;99.90
70368;DHT22;57789;53.868;10.728;2023-04-03T05:25:25;-0.40;99.90
70368;DHT22;57789;53.868;10.728;2023-04-03T05:27:54;-0.40;99.90
70368;DHT22;57789;53.868;10.728;2023-04-03T05:30:20;-0.30;99.90
70368;DHT22;57789;53.868;10.728;2023-04-03T05:32:46;-0.30;99.90
70368;DHT22;57789;53.868;10.728;2023-04-03T05:35:12;-0.20;99.90
70368;DHT22;57789;53.868;10.728;2023-04-03T05:37:37;-0.20;99.90
70368;DHT22;57789;53.868;10.728;2023-04-03T05:40:04;-0.30;99.90
70368;DHT22;57789;53.868;10.728;2023-04-03T05:42:30;-0.20;99.90
70368;DHT22;57789;53.868;10.728;2023-04-03T05:44:56;-0.20;99.90
70368;DHT22;57789;53.868;10.728;2023-04-03T05:47:25;-0.20;99.90
70368;DHT22;57789;53.868;10.728;2023-04-03T05:49:51;-0.20;99.90
70368;DHT22;57789;53.868;10.728;2023-04-03T05:52:28;-0.20;99.90
70368;DHT22;57789;53.868;10.728;2023-04-03T05:54:55;-0.10;99.90
70368;DHT22;57789;53.868;10.728;2023-04-03T05:57:21;-0.10;99.90
70368;DHT22;57789;53.868;10.728;2023-04-03T05:59:47;0.00;99.90
70368;DHT22;57789;53.868;10.728;2023-04-03T06:02:16;0.00;99.90
70368;DHT22;57789;53.868;10.728;2023-04-03T06:04:43;0.10;99.90
70368;DHT22;57789;53.868;10.728;2023-04-03T06:07:14;0.20;99.90
70368;DHT22;57789;53.868;10.728;2023-04-03T06:09:41;0.30;99.90
70368;DHT22;57789;53.868;10.728;2023-04-03T06:12:08;0.40;99.90
70368;DHT22;57789;53.868;10.728;2023-04-03T06:14:34;0.60;99.90
70368;DHT22;57789;53.868;10.728;2023-04-03T06:17:00;0.70;99.90
70368;DHT22;57789;53.868;10.728;2023-04-03T06:19:27;0.70;99.90
70368;DHT22;57789;53.868;10.728;2023-04-03T06:21:52;0.90;99.90
70368;DHT22;57789;53.868;10.728;2023-04-03T06:24:19;1.00;99.90
70368;DHT22;57789;53.868;10.728;2023-04-03T06:26:47;1.00;99.90
70368;DHT22;57789;53.868;10.728;2023-04-03T06:29:14;1.10;99.90
70368;DHT22;57789;53.868;10.728;2023-04-03T06:31:39;1.20;99.90
70368;DHT22;57789;53.868;10.728;2023-04-03T06:34:05;1.20;99.90
70368;DHT22;57789;53.868;10.728;2023-04-03T06:36:32;1.40;99.90
70368;DHT22;57789;53.868;10.728;2023-04-03T06:38:58;1.50;99.90
70368;DHT22;57789;53.868;10.728;2023-04-03T06:41:24;1.60;99.90
70368;DHT22;57789;53.868;10.728;2023-04-03T06:43:51;1.70;99.90
70368;DHT22;57789;53.868;10.728;2023-04-03T06:46:19;1.80;99.90
70368;DHT22;57789;53.868;10.728;2023-04-03T06:48:45;1.90;99.90
70368;DHT22;57789;53.868;10.728;2023-04-03T06:51:25;2.00;99.90
70368;DHT22;57789;53.868;10.728;2023-04-03T06:53:53;2.10;99.90
70368;DHT22;57789;53.868;10.728;2023-04-03T06:56:19;2.20;99.90
70368;DHT22;57789;53.868;10.728;2023-04-03T06:58:46;2.30;99.90
70368;DHT22;57789;53.868;10.728;2023-04-03T07:01:13;2.40;99.90
70368;DHT22;57789;53.868;10.728;2023-04-03T07:03:40;2.50;99.90
70368;DHT22;57789;53.868;10.728;2023-04-03T07:06:08;2.70;99.90
70368;DHT22;57789;53.868;10.728;2023-04-03T07:08:35;2.80;99.90
70368;DHT22;57789;53.868;10.728;2023-04-03T07:11:01;3.00;99.90
70368;DHT22;57789;53.868;10.728;2023-04-03T07:13:27;3.10;99.90
70368;DHT22;57789;53.868;10.728;2023-04-03T07:15:53;3.10;99.90
70368;DHT22;57789;53.868;10.728;2023-04-03T07:18:19;3.30;99.90
70368;DHT22;57789;53.868;10.728;2023-04-03T07:20:45;3.40;99.90
70368;DHT22;57789;53.868;10.728;2023-04-03T07:23:11;3.40;99.90
70368;DHT22;57789;53.868;10.728;2023-04-03T07:25:41;3.50;99.90
70368;DHT22;57789;53.868;10.728;2023-04-03T07:28:08;3.60;99.90
70368;DHT22;57789;53.868;10.728;2023-04-03T07:30:34;3.70;99.90
70368;DHT22;57789;53.868;10.728;2023-04-03T07:33:00;3.80;99.90
70368;DHT22;57789;53.868;10.728;2023-04-03T07:35:26;3.90;99.90
70368;DHT22;57789;53.868;10.728;2023-04-03T07:37:51;4.10;99.90
70368;DHT22;57789;53.868;10.728;2023-04-03T07:40:18;4.10;99.90
70368;DHT22;57789;53.868;10.728;2023-04-03T07:42:44;4.30;99.90
70368;DHT22;57789;53.868;10.728;2023-04-03T07:45:10;4.40;99.90
70368;DHT22;57789;53.868;10.728;2023-04-03T07:47:36;4.40;99.90
70368;DHT22;57789;53.868;10.728;2023-04-03T07:50:02;4.60;99.90
70368;DHT22;57789;53.868;10.728;2023-04-03T07:52:28;4.50;99.90
70368;DHT22;57789;53.868;10.728;2023-04-03T07:54:53;4.60;99.90
70368;DHT22;57789;53.868;10.728;2023-04-03T07:57:19;4.50;99.90
70368;DHT22;57789;53.868;10.728;2023-04-03T07:59:44;4.60;99.90
70368;DHT22;57789;53.868;10.728;2023-04-03T08:02:13;4.70;99.90
70368;DHT22;57789;53.868;10.728;2023-04-03T08:04:39;4.80;99.90
70368;DHT22;57789;53.868;10.728;2023-04-03T08:07:05;5.00;99.90
70368;DHT22;57789;53.868;10.728;2023-04-03T08:09:31;5.10;99.90
70368;DHT22;57789;53.868;10.728;2023-04-03T08:11:57;5.20;99.90
70368;DHT22;57789;53.868;10.728;2023-04-03T08:14:24;5.40;99.90
70368;DHT22;57789;53.868;10.728;2023-04-03T08:16:49;5.40;99.90
70368;DHT22;57789;53.868;10.728;2023-04-03T08:19:16;5.40;99.90
70368;DHT22;57789;53.868;10.728;2023-04-03T08:21:44;5.40;99.90
70368;DHT22;57789;53.868;10.728;2023-04-03T08:24:11;5.50;99.90
70368;DHT22;57789;53.868;10.728;2023-04-03T08:26:36;5.50;99.90
70368;DHT22;57789;53.868;10.728;2023-04-03T08:29:02;5.50;99.90
70368;DHT22;57789;53.868;10.728;2023-04-03T08:31:28;5.70;99.90
70368;DHT22;57789;53.868;10.728;2023-04-03T08:33:54;5.80;99.90
70368;DHT22;57789;53.868;10.728;2023-04-03T08:36:24;6.00;99.90
70368;DHT22;57789;53.868;10.728;2023-04-03T08:38:52;6.10;99.90
70368;DHT22;57789;53.868;10.728;2023-04-03T08:52:09;6.20;99.90
70368;DHT22;57789;53.868;10.728;2023-04-03T08:54:55;6.30;99.90
70368;DHT22;57789;53.868;10.728;2023-04-03T08:57:39;6.30;99.90
70368;DHT22;57789;53.868;10.728;2023-04-03T09:00:23;6.40;99.90
70368;DHT22;57789;53.868;10.728;2023-04-03T09:02:52;6.50;99.90
70368;DHT22;57789;53.868;10.728;2023-04-03T09:10:34;6.90;99.90
70368;DHT22;57789;53.868;10.728;2023-04-03T09:15:44;7.50;99.90
70368;DHT22;57789;53.868;10.728;2023-04-03T09:18:30;7.80;99.90
70368;DHT22;57789;53.868;10.728;2023-04-03T09:21:27;8.00;99.90
70368;DHT22;57789;53.868;10.728;2023-04-03T09:23:59;8.20;99.90
70368;DHT22;57789;53.868;10.728;2023-04-03T09:26:31;8.40;99.90
70368;DHT22;57789;53.868;10.728;2023-04-03T09:29:02;8.80;99.90
70368;DHT22;57789;53.868;10.728;2023-04-03T09:31:37;8.90;99.90
70368;DHT22;57789;53.868;10.728;2023-04-03T09:34:26;9.40;99.90
70368;DHT22;57789;53.868;10.728;2023-04-03T09:36:54;9.90;99.90
70368;DHT22;57789;53.868;10.728;2023-04-03T09:39:26;9.90;99.90
70368;DHT22;57789;53.868;10.728;2023-04-03T09:42:14;9.90;99.90
70368;DHT22;57789;53.868;10.728;2023-04-03T09:44:41;10.00;99.90
70368;DHT22;57789;53.868;10.728;2023-04-03T09:47:28;10.30;99.90
70368;DHT22;57789;53.868;10.728;2023-04-03T09:50:18;10.80;99.90
70368;DHT22;57789;53.868;10.728;2023-04-03T09:52:46;10.90;99.90
70368;DHT22;57789;53.868;10.728;2023-04-03T09:55:23;10.70;99.90
70368;DHT22;57789;53.868;10.728;2023-04-03T10:00:26;10.70;99.90
70368;DHT22;57789;53.868;10.728;2023-04-03T10:02:57;11.00;99.90
70368;DHT22;57789;53.868;10.728;2023-04-03T10:05:32;11.00;99.90
70368;DHT22;57789;53.868;10.728;2023-04-03T10:08:31;10.90;99.90
70368;DHT22;57789;53.868;10.728;2023-04-03T10:11:16;10.70;99.90
70368;DHT22;57789;53.868;10.728;2023-04-03T10:13:54;10.80;99.90
70368;DHT22;57789;53.868;10.728;2023-04-03T10:16:26;11.20;99.90
70368;DHT22;57789;53.868;10.728;2023-04-03T10:21:55;11.00;99.90
70368;DHT22;57789;53.868;10.728;2023-04-03T10:29:51;10.90;99.90
70368;DHT22;57789;53.868;10.728;2023-04-03T10:37:51;10.60;96.40
70368;DHT22;57789;53.868;10.728;2023-04-03T10:40:39;10.40;99.90
70368;DHT22;57789;53.868;10.728;2023-04-03T10:46:03;10.60;96.90
70368;DHT22;57789;53.868;10.728;2023-04-03T10:51:37;10.50;94.90
70368;DHT22;57789;53.868;10.728;2023-04-03T10:54:12;10.10;98.30
70368;DHT22;57789;53.868;10.728;2023-04-03T10:57:03;9.70;99.90
70368;DHT22;57789;53.868;10.728;2023-04-03T10:59:43;9.60;99.90
70368;DHT22;57789;53.868;10.728;2023-04-03T11:02:23;9.30;99.90
70368;DHT22;57789;53.868;10.728;2023-04-03T11:05:00;9.00;99.50
70368;DHT22;57789;53.868;10.728;2023-04-03T11:07:31;9.30;99.90
70368;DHT22;57789;53.868;10.728;2023-04-03T11:10:03;9.70;95.80
70368;DHT22;57789;53.868;10.728;2023-04-03T11:12:49;9.30;93.70
70368;DHT22;57789;53.868;10.728;2023-04-03T11:15:18;9.30;99.90
70368;DHT22;57789;53.868;10.728;2023-04-03T11:17:58;9.40;99.90
70368;DHT22;57789;53.868;10.728;2023-04-03T11:20:30;9.50;99.10
70368;DHT22;57789;53.868;10.728;2023-04-03T11:25:52;10.20;97.00
70368;DHT22;57789;53.868;10.728;2023-04-03T11:28:18;10.40;94.00
70368;DHT22;57789;53.868;10.728;2023-04-03T11:36:22;11.00;95.60
70368;DHT22;57789;53.868;10.728;2023-04-03T11:38:51;10.90;98.00
70368;DHT22;57789;53.868;10.728;2023-04-03T11:41:30;11.00;95.60
70368;DHT22;57789;53.868;10.728;2023-04-03T11:44:00;11.20;96.50
70368;DHT22;57789;53.868;10.728;2023-04-03T11:46:49;11.50;96.10
70368;DHT22;57789;53.868;10.728;2023-04-03T12:16:06;11.80;88.60
70368;DHT22;57789;53.868;10.728;2023-04-03T12:18:42;11.90;82.00
70368;DHT22;57789;53.868;10.728;2023-04-03T12:21:10;12.00;82.40
70368;DHT22;57789;53.868;10.728;2023-04-03T12:32:22;11.60;79.60
70368;DHT22;57789;53.868;10.728;2023-04-03T12:40:25;11.00;91.10
70368;DHT22;57789;53.868;10.728;2023-04-03T12:45:23;10.90;93.70
70368;DHT22;57789;53.868;10.728;2023-04-03T12:47:52;10.90;94.20
70368;DHT22;57789;53.868;10.728;2023-04-03T12:50:32;10.90;94.10
70368;DHT22;57789;53.868;10.728;2023-04-03T12:53:06;11.00;95.50
70368;DHT22;57789;53.868;10.728;2023-04-03T12:55:32;11.10;94.30
70368;DHT22;57789;53.868;10.728;2023-04-03T12:58:19;11.10;91.60
70368;DHT22;57789;53.868;10.728;2023-04-03T13:00:47;11.10;93.80
70368;DHT22;57789;53.868;10.728;2023-04-03T13:03:27;11.30;92.90
70368;DHT22;57789;53.868;10.728;2023-04-03T13:05:58;11.70;93.20
70368;DHT22;57789;53.868;10.728;2023-04-03T13:08:24;11.80;92.70
70368;DHT22;57789;53.868;10.728;2023-04-03T13:11:08;11.80;93.20
70368;DHT22;57789;53.868;10.728;2023-04-03T13:13:35;11.80;93.30
70368;DHT22;57789;53.868;10.728;2023-04-03T13:16:09;11.80;91.00
70368;DHT22;57789;53.868;10.728;2023-04-03T13:18:37;11.70;88.40
70368;DHT22;57789;53.868;10.728;2023-04-03T13:21:17;11.80;90.40
70368;DHT22;57789;53.868;10.728;2023-04-03T13:23:47;11.80;89.80
70368;DHT22;57789;53.868;10.728;2023-04-03T13:26:18;11.90;91.40
70368;DHT22;57789;53.868;10.728;2023-04-03T13:28:45;12.20;88.70
70368;DHT22;57789;53.868;10.728;2023-04-03T13:33:52;12.90;83.90
70368;DHT22;57789;53.868;10.728;2023-04-03T13:36:26;13.00;90.70
70368;DHT22;57789;53.868;10.728;2023-04-03T13:39:06;13.60;84.00
70368;DHT22;57789;53.868;10.728;2023-04-03T13:41:41;14.00;80.30
70368;DHT22;57789;53.868;10.728;2023-04-03T13:44:18;14.00;77.80
70368;DHT22;57789;53.868;10.728;2023-04-03T13:46:46;14.20;77.30
70368;DHT22;57789;53.868;10.728;2023-04-03T13:51:49;14.50;73.00
70368;DHT22;57789;53.868;10.728;2023-04-03T13:54:23;14.30;72.50
70368;DHT22;57789;53.868;10.728;2023-04-03T13:56:54;14.30;73.00
70368;DHT22;57789;53.868;10.728;2023-04-03T13:59:30;14.50;72.70
70368;DHT22;57789;53.868;10.728;2023-04-03T14:04:45;14.60;69.10
70368;DHT22;57789;53.868;10.728;2023-04-03T14:07:13;14.70;70.10
70368;DHT22;57789;53.868;10.728;2023-04-03T14:09:39;14.70;68.90
70368;DHT22;57789;53.868;10.728;2023-04-03T14:12:15;14.60;69.20
70368;DHT22;57789;53.868;10.728;2023-04-03T14:14:42;14.60;67.00
70368;DHT22;57789;53.868;10.728;2023-04-03T14:17:18;14.80;68.10
70368;DHT22;57789;53.868;10.728;2023-04-03T14:20:01;14.60;68.10
70368;DHT22;57789;53.868;10.728;2023-04-03T14:22:32;13.90;69.00
70368;DHT22;57789;53.868;10.728;2023-04-03T14:25:00;13.80;69.90
70368;DHT22;57789;53.868;10.728;2023-04-03T14:27:35;13.40;67.40
70368;DHT22;57789;53.868;10.728;2023-04-03T14:30:02;13.40;68.90
70368;DHT22;57789;53.868;10.728;2023-04-03T14:32:29;13.90;71.00
70368;DHT22;57789;53.868;10.728;2023-04-03T14:34:56;13.90;70.80
70368;DHT22;57789;53.868;10.728;2023-04-03T14:37:26;13.50;70.40
70368;DHT22;57789;53.868;10.728;2023-04-03T14:39:54;13.80;73.40
70368;DHT22;57789;53.868;10.728;2023-04-03T14:42:23;14.20;77.10
70368;DHT22;57789;53.868;10.728;2023-04-03T14:44:50;14.30;75.80
70368;DHT22;57789;53.868;10.728;2023-04-03T14:47:21;14.50;73.90
70368;DHT22;57789;53.868;10.728;2023-04-03T14:49:48;14.60;67.90
70368;DHT22;57789;53.868;10.728;2023-04-03T14:52:28;14.50;67.50
70368;DHT22;57789;53.868;10.728;2023-04-03T14:54:55;14.30;67.30
70368;DHT22;57789;53.868;10.728;2023-04-03T14:57:27;13.80;67.90
70368;DHT22;57789;53.868;10.728;2023-04-03T14:59:55;14.00;69.40
70368;DHT22;57789;53.868;10.728;2023-04-03T15:04:56;14.20;73.20
70368;DHT22;57789;53.868;10.728;2023-04-03T15:07:24;13.70;71.00
70368;DHT22;57789;53.868;10.728;2023-04-03T15:09:50;14.10;74.20
70368;DHT22;57789;53.868;10.728;2023-04-03T15:12:16;14.60;69.30
70368;DHT22;57789;53.868;10.728;2023-04-03T15:14:42;14.90;67.60
70368;DHT22;57789;53.868;10.728;2023-04-03T15:17:16;14.50;69.20
70368;DHT22;57789;53.868;10.728;2023-04-03T15:19:42;14.90;69.20
70368;DHT22;57789;53.868;10.728;2023-04-03T15:22:18;15.00;68.10
70368;DHT22;57789;53.868;10.728;2023-04-03T15:24:44;15.20;65.80
70368;DHT22;57789;53.868;10.728;2023-04-03T15:27:12;15.10;65.30
70368;DHT22;57789;53.868;10.728;2023-04-03T15:29:39;15.30;65.80
70368;DHT22;57789;53.868;10.728;2023-04-03T15:32:05;15.30;65.40
70368;DHT22;57789;53.868;10.728;2023-04-03T15:34:31;15.10;62.50
70368;DHT22;57789;53.868;10.728;2023-04-03T15:36:57;15.40;64.80
70368;DHT22;57789;53.868;10.728;2023-04-03T15:39:25;15.30;62.50
70368;DHT22;57789;53.868;10.728;2023-04-03T15:41:51;15.40;61.80
70368;DHT22;57789;53.868;10.728;2023-04-03T15:44:18;15.40;61.50
70368;DHT22;57789;53.868;10.728;2023-04-03T15:46:47;15.10;63.30
70368;DHT22;57789;53.868;10.728;2023-04-03T15:49:18;15.30;61.40
70368;DHT22;57789;53.868;10.728;2023-04-03T15:51:44;15.30;62.10
70368;DHT22;57789;53.868;10.728;2023-04-03T15:54:10;15.40;62.80
70368;DHT22;57789;53.868;10.728;2023-04-03T15:56:36;15.30;62.50
70368;DHT22;57789;53.868;10.728;2023-04-03T15:59:02;15.50;62.20
70368;DHT22;57789;53.868;10.728;2023-04-03T16:01:28;15.20;62.20
70368;DHT22;57789;53.868;10.728;2023-04-03T16:03:54;14.90;63.60
70368;DHT22;57789;53.868;10.728;2023-04-03T16:06:20;15.30;63.50
70368;DHT22;57789;53.868;10.728;2023-04-03T16:08:48;15.40;61.50
70368;DHT22;57789;53.868;10.728;2023-04-03T16:11:17;15.00;62.90
70368;DHT22;57789;53.868;10.728;2023-04-03T16:13:43;14.90;63.00
70368;DHT22;57789;53.868;10.728;2023-04-03T16:16:09;14.90;62.20
70368;DHT22;57789;53.868;10.728;2023-04-03T16:18:36;14.90;62.80
70368;DHT22;57789;53.868;10.728;2023-04-03T16:21:02;14.70;63.30
70368;DHT22;57789;53.868;10.728;2023-04-03T16:23:28;14.80;65.60
70368;DHT22;57789;53.868;10.728;2023-04-03T16:25:54;14.20;64.60
70368;DHT22;57789;53.868;10.728;2023-04-03T16:28:20;14.10;64.80
70368;DHT22;57789;53.868;10.728;2023-04-03T16:30:46;14.70;64.40
70368;DHT22;57789;53.868;10.728;2023-04-03T16:33:13;14.80;63.10
70368;DHT22;57789;53.868;10.728;2023-04-03T16:35:39;15.10;61.80
70368;DHT22;57789;53.868;10.728;2023-04-03T16:38:07;15.00;62.20
70368;DHT22;57789;53.868;10.728;2023-04-03T16:40:33;14.60;61.90
70368;DHT22;57789;53.868;10.728;2023-04-03T16:43:00;14.40;64.00
70368;DHT22;57789;53.868;10.728;2023-04-03T16:45:26;13.90;64.70
70368;DHT22;57789;53.868;10.728;2023-04-03T16:47:51;13.40;67.80
70368;DHT22;57789;53.868;10.728;2023-04-03T16:50:17;13.30;69.50
70368;DHT22;57789;53.868;10.728;2023-04-03T16:52:49;13.10;71.00
70368;DHT22;57789;53.868;10.728;2023-04-03T16:55:18;12.50;75.30
70368;DHT22;57789;53.868;10.728;2023-04-03T16:57:46;11.40;82.80
70368;DHT22;57789;53.868;10.728;2023-04-03T17:00:13;10.50;91.20
70368;DHT22;57789;53.868;10.728;2023-04-03T17:02:40;9.90;95.60
70368;DHT22;57789;53.868;10.728;2023-04-03T17:05:06;9.30;99.10
70368;DHT22;57789;53.868;10.728;2023-04-03T17:07:32;8.80;99.90
70368;DHT22;57789;53.868;10.728;2023-04-03T17:10:02;8.40;99.90
70368;DHT22;57789;53.868;10.728;2023-04-03T17:12:27;8.00;99.90
70368;DHT22;57789;53.868;10.728;2023-04-03T17:14:53;7.60;99.90
70368;DHT22;57789;53.868;10.728;2023-04-03T17:17:22;7.40;99.90
70368;DHT22;57789;53.868;10.728;2023-04-03T17:19:50;7.10;99.90
70368;DHT22;57789;53.868;10.728;2023-04-03T17:22:16;6.70;99.90